createdAt,value
2023-05-09T00:02:24.435Z,10.60
2023-05-09T00:05:53.260Z,10.50
2023-05-09T00:09:20.205Z,9.40
2023-05-09T00:12:47.548Z,9.30
2023-05-09T00:16:14.751Z,9.70
2023-05-09T00:19:41.424Z,9.20
2023-05-09T00:23:08.723Z,9.20
2023-05-09T00:26:36.226Z,8.90
2023-05-09T00:30:03.288Z,8.70
2023-05-09T00:33:30.499Z,9.20
2023-05-09T00:36:57.610Z,9.00
2023-05-09T00:40:24.873Z,9.20
2023-05-09T00:43:51.779Z,10.00
2023-05-09T00:47:18.606Z,9.90
2023-05-09T00:50:46.651Z,10.90
2023-05-09T00:54:13.976Z,11.30
2023-05-09T00:57:41.260Z,10.90
2023-05-09T01:01:09.645Z,11.80
2023-05-09T01:04:36.735Z,11.50
2023-05-09T01:08:12.745Z,11.10
2023-05-09T01:11:43.986Z,11.00
2023-05-09T01:15:18.978Z,10.90
2023-05-09T01:18:53.225Z,9.90
2023-05-09T01:25:56.786Z,10.00
2023-05-09T01:29:38.292Z,9.20
2023-05-09T01:33:08.147Z,9.20
2023-05-09T01:36:36.808Z,9.90
2023-05-09T01:40:10.268Z,9.80
2023-05-09T01:43:40.235Z,9.20
2023-05-09T01:47:08.483Z,9.40
2023-05-09T01:50:37.055Z,12.20
2023-05-09T01:54:08.325Z,11.90
2023-05-09T01:57:37.304Z,12.20
2023-05-09T02:01:05.239Z,13.40
2023-05-09T02:04:32.662Z,13.10
2023-05-09T02:08:01.091Z,13.00
2023-05-09T02:11:28.564Z,12.80
2023-05-09T02:14:55.460Z,13.30
2023-05-09T02:18:23.222Z,12.30
2023-05-09T02:21:50.649Z,12.80
2023-05-09T02:25:19.076Z,13.20
2023-05-09T02:28:48.660Z,12.50
2023-05-09T02:32:18.671Z,14.00
2023-05-09T02:35:47.719Z,13.20
2023-05-09T02:39:15.336Z,13.90
2023-05-09T02:42:42.229Z,13.30
2023-05-09T02:46:09.117Z,14.60
2023-05-09T02:49:36.030Z,14.10
2023-05-09T02:53:03.261Z,14.20
2023-05-09T02:56:30.254Z,13.70
2023-05-09T02:59:57.003Z,14.00
2023-05-09T03:03:25.688Z,13.40
2023-05-09T03:06:53.782Z,13.90
2023-05-09T03:10:21.133Z,13.80
2023-05-09T03:13:47.759Z,14.80
2023-05-09T03:17:17.616Z,14.10
2023-05-09T03:20:44.808Z,13.70
2023-05-09T03:24:11.870Z,14.80
2023-05-09T03:27:38.871Z,15.30
2023-05-09T03:31:08.301Z,15.50
2023-05-09T03:34:35.388Z,16.40
2023-05-09T03:38:02.779Z,16.80
2023-05-09T03:41:30.775Z,16.60
2023-05-09T03:44:58.524Z,17.90
2023-05-09T03:48:25.597Z,18.00
2023-05-09T03:51:52.540Z,18.20
2023-05-09T03:55:19.509Z,16.70
2023-05-09T03:58:46.830Z,17.20
2023-05-09T04:02:14.842Z,15.70
2023-05-09T04:05:46.208Z,16.70
2023-05-09T04:09:21.919Z,16.80
2023-05-09T04:12:49.520Z,16.00
2023-05-09T04:16:17.334Z,16.90
2023-05-09T04:19:44.056Z,17.10
2023-05-09T04:23:10.922Z,16.40
2023-05-09T04:26:39.334Z,17.70
2023-05-09T04:30:10.741Z,16.00
2023-05-09T04:33:39.610Z,16.30
2023-05-09T04:37:06.920Z,15.40
2023-05-09T04:40:37.280Z,16.50
2023-05-09T04:44:05.343Z,16.00
2023-05-09T04:47:32.213Z,14.30
2023-05-09T04:50:59.511Z,15.40
2023-05-09T04:54:26.289Z,14.80
2023-05-09T04:57:53.797Z,14.50
2023-05-09T05:01:21.032Z,14.80
2023-05-09T05:04:49.071Z,14.90
2023-05-09T05:08:16.644Z,14.80
2023-05-09T05:11:53.214Z,14.60
2023-05-09T05:15:27.045Z,13.60
2023-05-09T05:18:54.274Z,13.10
2023-05-09T05:22:23.369Z,13.60
2023-05-09T05:25:50.891Z,12.70
2023-05-09T05:29:19.150Z,12.30
2023-05-09T05:32:47.653Z,11.50
2023-05-09T05:36:17.828Z,11.50
2023-05-09T05:39:44.588Z,11.60
2023-05-09T05:43:13.424Z,11.40
2023-05-09T05:46:40.733Z,10.10
2023-05-09T05:50:17.755Z,9.10
2023-05-09T05:53:48.647Z,9.90
2023-05-09T05:57:16.491Z,8.40
2023-05-09T06:00:44.202Z,8.50
2023-05-09T06:04:10.938Z,7.80
2023-05-09T06:07:38.195Z,7.30
2023-05-09T06:11:06.307Z,6.40
2023-05-09T06:14:33.553Z,5.90
2023-05-09T06:18:00.787Z,6.90
2023-05-09T06:21:27.710Z,6.90
2023-05-09T06:24:54.532Z,6.20
2023-05-09T06:28:21.853Z,5.80
2023-05-09T06:31:49.740Z,6.50
2023-05-09T06:35:17.740Z,6.80
2023-05-09T06:38:44.908Z,6.60
2023-05-09T06:42:12.102Z,6.40
2023-05-09T06:45:39.373Z,5.90
2023-05-09T06:49:07.504Z,5.90
2023-05-09T06:52:34.494Z,6.10
2023-05-09T06:56:00.983Z,5.60
2023-05-09T06:59:28.337Z,5.80
2023-05-09T07:02:55.438Z,5.70
2023-05-09T07:06:22.868Z,5.70
2023-05-09T07:09:52.969Z,4.30
2023-05-09T07:13:22.840Z,4.70
2023-05-09T07:16:49.983Z,4.00
2023-05-09T07:20:17.445Z,3.90
2023-05-09T07:23:46.033Z,4.70
2023-05-09T07:27:13.296Z,5.00
2023-05-09T07:30:40.433Z,4.50
2023-05-09T07:34:07.441Z,3.80
2023-05-09T07:37:35.212Z,4.40
2023-05-09T07:41:02.787Z,4.00
2023-05-09T07:44:29.700Z,4.30
2023-05-09T07:47:59.180Z,4.40
2023-05-09T07:51:27.265Z,3.40
2023-05-09T07:54:54.943Z,3.30
2023-05-09T07:58:21.948Z,3.20
2023-05-09T08:01:49.176Z,3.20
2023-05-09T08:05:16.671Z,3.00
2023-05-09T08:08:44.858Z,3.10
2023-05-09T08:12:13.195Z,2.60
2023-05-09T08:15:40.513Z,2.20
2023-05-09T08:19:07.707Z,2.20
2023-05-09T08:22:37.853Z,2.00
2023-05-09T08:26:05.210Z,2.50
2023-05-09T08:29:33.444Z,2.80
2023-05-09T08:33:02.152Z,2.40
2023-05-09T08:36:29.129Z,2.00
2023-05-09T08:39:56.534Z,3.20
2023-05-09T08:43:25.295Z,2.70
2023-05-09T08:46:58.348Z,2.70
2023-05-09T08:50:28.103Z,2.60
2023-05-09T08:53:55.575Z,2.90
2023-05-09T08:57:22.221Z,2.90
2023-05-09T09:00:50.543Z,2.60
2023-05-09T09:04:17.710Z,3.40
2023-05-09T09:07:46.732Z,2.70
2023-05-09T09:11:17.499Z,3.10
2023-05-09T09:14:49.324Z,2.10
2023-05-09T09:18:22.350Z,2.30
2023-05-09T09:25:14.551Z,2.10
2023-05-09T09:28:42.286Z,2.20
2023-05-09T09:32:10.133Z,2.60
2023-05-09T09:35:43.761Z,2.10
2023-05-09T09:39:10.898Z,2.10
2023-05-09T09:42:45.896Z,1.80
2023-05-09T09:46:16.590Z,1.90
2023-05-09T09:49:49.397Z,2.10
2023-05-09T09:53:16.657Z,2.50
2023-05-09T09:56:46.297Z,2.30
2023-05-09T10:00:16.948Z,2.70
2023-05-09T10:03:46.447Z,2.30
2023-05-09T10:07:15.085Z,2.60
2023-05-09T10:10:46.852Z,2.80
2023-05-09T10:14:13.772Z,2.60
2023-05-09T10:17:41.269Z,2.20
2023-05-09T10:21:14.362Z,2.20
2023-05-09T10:24:48.624Z,2.70
2023-05-09T10:28:20.198Z,2.80
2023-05-09T10:31:49.035Z,2.30
2023-05-09T10:35:34.275Z,2.20
2023-05-09T10:39:07.892Z,2.10
2023-05-09T10:42:38.527Z,2.20
2023-05-09T10:46:09.265Z,2.70
2023-05-09T10:49:38.320Z,2.30
2023-05-09T10:53:18.604Z,2.30
2023-05-09T10:56:45.693Z,2.60
2023-05-09T11:00:15.218Z,2.30
2023-05-09T11:03:59.034Z,2.50
2023-05-09T11:07:30.503Z,2.30
2023-05-09T11:11:01.590Z,2.90
2023-05-09T11:14:48.188Z,2.80
2023-05-09T11:18:16.217Z,2.40
2023-05-09T11:22:03.908Z,2.50
2023-05-09T11:25:45.179Z,1.80
2023-05-09T11:29:14.092Z,2.60
2023-05-09T11:32:47.768Z,2.70
2023-05-09T11:36:25.862Z,2.80
2023-05-09T11:40:05.044Z,2.50
2023-05-09T11:43:32.157Z,2.80
2023-05-09T11:47:01.194Z,2.70
2023-05-09T11:50:28.259Z,2.70
2023-05-09T11:53:56.387Z,3.20
2023-05-09T11:57:24.129Z,3.60
2023-05-09T12:00:53.999Z,3.00
2023-05-09T12:04:22.419Z,3.20
2023-05-09T12:07:50.387Z,3.30
2023-05-09T12:11:17.671Z,2.40
2023-05-09T12:14:57.005Z,2.60
2023-05-09T12:18:42.659Z,1.90
2023-05-09T12:22:14.729Z,2.50
2023-05-09T12:25:47.962Z,2.70
2023-05-09T12:29:16.298Z,2.20
2023-05-09T12:32:44.009Z,2.80
2023-05-09T12:36:13.959Z,2.50
2023-05-09T12:39:40.634Z,2.00
2023-05-09T12:43:31.482Z,2.70
2023-05-09T12:47:15.448Z,2.40
2023-05-09T12:50:51.712Z,2.60
2023-05-09T12:54:25.886Z,2.50
2023-05-09T12:58:03.600Z,2.40
2023-05-09T13:01:33.827Z,2.60
2023-05-09T13:05:24.534Z,8.60
2023-05-09T13:09:03.353Z,3.00
2023-05-09T13:12:31.086Z,2.80
2023-05-09T13:15:58.084Z,2.80
2023-05-09T13:19:25.020Z,2.30
2023-05-09T13:22:51.682Z,2.70
2023-05-09T13:26:19.488Z,2.40
2023-05-09T13:29:48.526Z,2.90
2023-05-09T13:33:25.276Z,2.60
2023-05-09T13:36:58.183Z,2.70
2023-05-09T13:40:28.014Z,2.60
2023-05-09T13:43:56.963Z,3.00
2023-05-09T13:47:26.812Z,2.50
2023-05-09T13:50:57.809Z,2.60
2023-05-09T13:54:24.743Z,2.30
2023-05-09T13:57:52.263Z,2.40
2023-05-09T14:01:19.425Z,2.30
2023-05-09T14:04:46.612Z,2.50
2023-05-09T14:08:14.057Z,2.70
2023-05-09T14:11:44.926Z,2.20
2023-05-09T14:15:12.970Z,2.10
2023-05-09T14:18:39.978Z,3.40
2023-05-09T14:22:07.029Z,2.20
2023-05-09T14:25:34.266Z,2.70
2023-05-09T14:29:03.785Z,2.60
2023-05-09T14:32:30.998Z,2.50
2023-05-09T14:35:57.797Z,3.20
2023-05-09T14:39:26.396Z,2.30
2023-05-09T14:42:54.565Z,2.40
2023-05-09T14:46:21.129Z,2.50
2023-05-09T14:49:48.196Z,2.70
2023-05-09T14:53:15.621Z,4.20
2023-05-09T14:56:42.373Z,3.90
2023-05-09T15:00:21.950Z,2.30
2023-05-09T15:03:50.305Z,2.40
2023-05-09T15:07:17.032Z,6.60
2023-05-09T15:10:44.282Z,4.30
2023-05-09T15:14:11.253Z,4.40
2023-05-09T15:17:38.690Z,2.20
2023-05-09T15:21:05.969Z,2.60
2023-05-09T15:24:33.145Z,2.50
2023-05-09T15:28:00.219Z,2.40
2023-05-09T15:31:27.487Z,2.30
2023-05-09T15:34:54.843Z,2.20
2023-05-09T15:38:21.288Z,2.40
2023-05-09T15:41:48.052Z,2.70
2023-05-09T15:45:16.015Z,2.70
2023-05-09T15:48:43.414Z,3.30
2023-05-09T15:52:11.740Z,4.20
2023-05-09T15:55:38.916Z,3.80
2023-05-09T15:59:05.789Z,2.60
2023-05-09T16:02:33.120Z,2.30
2023-05-09T16:06:01.666Z,2.90
2023-05-09T16:09:28.803Z,2.80
2023-05-09T16:12:56.168Z,3.10
2023-05-09T16:16:23.722Z,4.40
2023-05-09T16:19:51.068Z,2.80
2023-05-09T16:23:17.758Z,2.70
2023-05-09T16:26:44.458Z,3.20
2023-05-09T16:30:13.927Z,3.50
2023-05-09T16:33:41.742Z,2.80
2023-05-09T16:37:08.764Z,2.20
2023-05-09T16:40:35.408Z,2.50
2023-05-09T16:44:03.361Z,2.80
2023-05-09T16:47:30.915Z,2.60
2023-05-09T16:51:00.351Z,2.90
2023-05-09T16:54:27.573Z,2.60
2023-05-09T16:57:54.505Z,3.00
2023-05-09T17:01:21.593Z,2.10
2023-05-09T17:04:49.107Z,2.40
2023-05-09T17:08:16.862Z,2.00
2023-05-09T17:11:43.981Z,1.90
2023-05-09T17:15:14.037Z,2.40
2023-05-09T17:18:46.199Z,2.20
2023-05-09T17:22:13.227Z,3.20
2023-05-09T17:25:40.261Z,2.20
2023-05-09T17:29:07.350Z,2.40
2023-05-09T17:32:35.011Z,2.30
2023-05-09T17:36:02.931Z,3.30
2023-05-09T17:39:31.461Z,2.10
2023-05-09T17:42:58.522Z,2.70
2023-05-09T17:46:28.509Z,2.80
2023-05-09T17:49:55.908Z,8.20
2023-05-09T17:53:27.978Z,4.50
2023-05-09T17:57:00.032Z,2.90
2023-05-09T18:00:27.570Z,2.60
2023-05-09T18:03:54.998Z,2.40
2023-05-09T18:07:24.747Z,2.40
2023-05-09T18:10:55.223Z,2.50
2023-05-09T18:14:27.539Z,2.80
2023-05-09T18:17:59.740Z,2.60
2023-05-09T18:21:26.655Z,2.30
2023-05-09T18:24:53.593Z,2.60
2023-05-09T18:28:25.002Z,3.20
2023-05-09T18:31:51.939Z,2.80
2023-05-09T18:35:19.605Z,2.80
2023-05-09T18:38:48.191Z,2.40
2023-05-09T18:42:16.448Z,2.30
2023-05-09T18:45:45.369Z,2.30
2023-05-09T18:49:12.601Z,2.70
2023-05-09T18:52:39.735Z,2.30
2023-05-09T18:56:08.001Z,2.80
2023-05-09T18:59:34.844Z,2.20
2023-05-09T19:03:01.971Z,2.80
2023-05-09T19:06:29.422Z,3.30
2023-05-09T19:09:56.654Z,3.40
2023-05-09T19:13:24.137Z,2.80
2023-05-09T19:16:51.758Z,3.00
2023-05-09T19:20:19.551Z,3.00
2023-05-09T19:23:49.392Z,3.10
2023-05-09T19:27:18.628Z,3.00
2023-05-09T19:30:48.900Z,3.80
2023-05-09T19:34:16.442Z,4.00
2023-05-09T19:37:44.249Z,3.70
2023-05-09T19:41:14.020Z,3.50
2023-05-09T19:44:41.818Z,3.20
2023-05-09T19:48:15.601Z,3.40
2023-05-09T19:51:43.828Z,3.80
2023-05-09T19:55:12.976Z,3.10
2023-05-09T19:58:41.147Z,3.80
2023-05-09T20:02:08.816Z,3.60
2023-05-09T20:09:22.227Z,4.40
2023-05-09T20:12:49.230Z,4.00
2023-05-09T20:16:16.259Z,4.30
2023-05-09T20:19:43.520Z,3.60
2023-05-09T20:23:10.803Z,3.20
2023-05-09T20:26:37.637Z,4.00
2023-05-09T20:30:04.865Z,3.40
2023-05-09T20:33:32.289Z,3.50
2023-05-09T20:36:59.913Z,3.90
2023-05-09T20:40:26.873Z,4.30
2023-05-09T20:43:56.223Z,4.00
2023-05-09T20:47:23.115Z,4.30
2023-05-09T20:50:50.579Z,4.00
2023-05-09T20:54:20.945Z,4.20
2023-05-09T20:57:48.128Z,4.50
2023-05-09T21:01:15.334Z,4.40
2023-05-09T21:04:41.998Z,4.00
2023-05-09T21:08:12.270Z,4.90
2023-05-09T21:11:40.056Z,3.70
2023-05-09T21:15:09.605Z,4.00
2023-05-09T21:18:38.998Z,4.20
2023-05-09T21:22:05.767Z,4.10
2023-05-09T21:25:32.537Z,3.70
2023-05-09T21:28:59.417Z,4.10
2023-05-09T21:32:26.729Z,3.80
2023-05-09T21:35:54.204Z,4.80
2023-05-09T21:39:21.095Z,4.20
2023-05-09T21:42:50.491Z,3.90
2023-05-09T21:46:20.038Z,4.30
2023-05-09T21:49:47.072Z,4.10
2023-05-09T21:53:13.755Z,4.00
2023-05-09T21:56:42.873Z,4.20
2023-05-09T22:00:14.710Z,4.00
2023-05-09T22:03:42.550Z,4.80
2023-05-09T22:07:12.089Z,4.30
2023-05-09T22:10:39.142Z,4.60
2023-05-09T22:14:06.943Z,4.60
2023-05-09T22:17:34.248Z,4.00
2023-05-09T22:21:02.582Z,3.90
2023-05-09T22:24:29.796Z,4.30
2023-05-09T22:27:56.950Z,4.20
2023-05-09T22:31:23.922Z,4.10
2023-05-09T22:34:51.188Z,4.00
2023-05-09T22:38:18.313Z,4.60
2023-05-09T22:41:45.497Z,4.40
2023-05-09T22:45:14.444Z,4.30
2023-05-09T22:48:41.186Z,4.50
2023-05-09T22:52:08.547Z,4.10
2023-05-09T22:55:35.355Z,5.10
2023-05-09T22:59:02.957Z,4.40
2023-05-09T23:02:30.437Z,5.10
2023-05-09T23:05:57.236Z,4.50
2023-05-09T23:09:25.236Z,4.40
2023-05-09T23:12:52.072Z,4.50
2023-05-09T23:16:19.220Z,4.60
2023-05-09T23:19:46.493Z,3.70
2023-05-09T23:23:15.270Z,4.40
2023-05-09T23:26:45.356Z,4.70
2023-05-09T23:30:13.892Z,4.10
2023-05-09T23:33:43.584Z,4.80
2023-05-09T23:37:10.400Z,4.20
2023-05-09T23:40:38.810Z,4.20
2023-05-09T23:44:07.860Z,4.40
2023-05-09T23:47:35.450Z,5.00
2023-05-09T23:51:02.338Z,4.80
2023-05-09T23:54:29.128Z,4.10
2023-05-09T23:57:56.313Z,4.60
